Time;durP1;ratioP1;P1;durP2;ratioP2;P2;SDS_P1;SDS_P2;PMS_P1;PMS_P2;Temp;Humidity;BMP_temperature;BMP_pressure;BME280_temperature;BME280_humidity;BME280_pressure;Samples;Min_cycle;Max_cycle;Signal;HPM_P1;HPM_P2
2021/01/21 00:00:58;;;;;;;4.80;3.37;;;;;;;;;;5013370;28;20848;-83
2021/01/21 00:03:23;;;;;;;4.72;3.35;;;;;;;;;;4996510;28;20395;-83
2021/01/21 00:05:49;;;;;;;4.88;3.47;;;;;;;;;;4996630;28;20391;-84
2021/01/21 00:08:16;;;;;;;4.47;3.58;;;;;;;;;;4997118;28;20458;-83
2021/01/21 00:10:42;;;;;;;4.13;3.17;;;;;;;;;;4996264;28;20456;-84
2021/01/21 00:13:07;;;;;;;4.20;3.20;;;;;;;;;;5013143;28;20933;-83
2021/01/21 00:15:33;;;;;;;6.47;3.50;;;;;;;;;;5013641;28;20758;-83
2021/01/21 00:18:00;;;;;;;4.60;3.30;;;;;;;;;;5014562;28;20714;-83
2021/01/21 00:20:26;;;;;;;5.40;3.55;;;;;;;;;;5014288;28;20359;-82
2021/01/21 00:22:52;;;;;;;5.80;3.15;;;;;;;;;;5014145;28;20449;-82
2021/01/21 00:25:18;;;;;;;5.05;3.60;;;;;;;;;;4996885;28;20375;-82
2021/01/21 00:27:44;;;;;;;4.50;3.40;;;;;;;;;;5013942;28;20396;-82
2021/01/21 00:30:10;;;;;;;4.20;3.67;;;;;;;;;;4996556;28;20372;-83
2021/01/21 00:32:36;;;;;;;6.20;3.30;;;;;;;;;;5014137;28;20856;-83
2021/01/21 00:35:02;;;;;;;4.88;3.35;;;;;;;;;;5014373;28;20403;-82
2021/01/21 00:37:28;;;;;;;5.27;3.20;;;;;;;;;;5014399;28;20355;-82
2021/01/21 00:39:54;;;;;;;5.43;3.38;;;;;;;;;;4996393;28;20378;-82
2021/01/21 00:42:20;;;;;;;5.30;3.30;;;;;;;;;;4996409;28;20493;-83
2021/01/21 00:44:46;;;;;;;5.50;3.20;;;;;;;;;;4996372;28;20372;-83
2021/01/21 00:47:12;;;;;;;4.18;3.08;;;;;;;;;;4996498;28;20536;-82
2021/01/21 00:49:38;;;;;;;3.67;3.08;;;;;;;;;;4996284;28;20877;-82
2021/01/21 00:52:04;;;;;;;4.17;3.10;;;;;;;;;;4996547;28;20419;-83
2021/01/21 00:54:30;;;;;;;3.63;2.95;;;;;;;;;;4996398;28;20375;-83
2021/01/21 00:56:56;;;;;;;4.60;3.10;;;;;;;;;;4996334;28;20374;-82
2021/01/21 00:59:22;;;;;;;3.22;2.67;;;;;;;;;;5013667;28;20366;-83
2021/01/21 01:01:48;;;;;;;4.60;2.97;;;;;;;;;;4996250;28;20865;-83
2021/01/21 01:04:14;;;;;;;3.63;2.88;;;;;;;;;;4996294;28;20391;-83
2021/01/21 01:06:40;;;;;;;4.70;3.30;;;;;;;;;;5013866;28;20410;-83
2021/01/21 01:09:06;;;;;;;3.53;2.97;;;;;;;;;;4995942;28;20458;-83
2021/01/21 01:11:32;;;;;;;4.10;2.70;;;;;;;;;;5013640;28;20399;-84
2021/01/21 01:13:58;;;;;;;4.40;2.70;;;;;;;;;;5013274;28;20371;-83
2021/01/21 01:16:24;;;;;;;3.92;2.47;;;;;;;;;;5013477;28;20363;-83
2021/01/21 01:18:50;;;;;;;3.63;2.60;;;;;;;;;;5013444;28;20360;-82
2021/01/21 01:21:16;;;;;;;4.88;2.40;;;;;;;;;;4995536;28;20880;-82
2021/01/21 01:23:42;;;;;;;3.80;2.50;;;;;;;;;;5013338;28;20597;-83
2021/01/21 01:26:08;;;;;;;3.20;2.53;;;;;;;;;;5013332;28;20359;-83
2021/01/21 01:28:34;;;;;;;8.80;2.63;;;;;;;;;;5013294;28;20375;-83
2021/01/21 01:30:59;;;;;;;3.13;2.53;;;;;;;;;;4995473;28;20429;-85
2021/01/21 01:33:25;;;;;;;4.50;2.50;;;;;;;;;;5012932;28;20375;-83
2021/01/21 01:35:51;;;;;;;3.00;2.40;;;;;;;;;;4995361;28;20414;-83
2021/01/21 01:38:17;;;;;;;3.28;2.40;;;;;;;;;;4995081;28;20908;-83
2021/01/21 01:40:43;;;;;;;2.40;2.20;;;;;;;;;;5012786;28;20834;-83
2021/01/21 01:43:09;;;;;;;3.90;2.50;;;;;;;;;;5013011;28;20395;-83
2021/01/21 01:45:35;;;;;;;3.83;2.60;;;;;;;;;;5013146;28;20371;-83
2021/01/21 01:48:03;;;;;;;3.67;2.38;;;;;;;;;;5013133;28;20371;-84
2021/01/21 01:50:29;;;;;;;3.60;2.45;;;;;;;;;;5012929;28;20358;-83
2021/01/21 01:52:55;;;;;;;3.85;2.33;;;;;;;;;;5013053;28;20414;-83
2021/01/21 01:55:21;;;;;;;2.90;2.13;;;;;;;;;;5012925;28;20371;-83
2021/01/21 01:57:54;;;;;;;2.63;2.17;;;;;;;;;;4995312;28;20877;-83
2021/01/21 02:00:20;;;;;;;3.70;2.22;;;;;;;;;;5012836;28;20371;-83
2021/01/21 02:02:48;;;;;;;4.28;2.33;;;;;;;;;;4995360;28;20395;-83
2021/01/21 02:05:14;;;;;;;3.35;2.45;;;;;;;;;;4995261;28;20380;-83
2021/01/21 02:07:40;;;;;;;4.05;2.38;;;;;;;;;;4997540;28;20379;-84
2021/01/21 02:10:06;;;;;;;3.33;1.98;;;;;;;;;;5019280;28;20454;-83
2021/01/21 02:12:39;;;;;;;2.50;2.22;;;;;;;;;;4996933;28;20379;-83
2021/01/21 02:15:05;;;;;;;3.33;2.40;;;;;;;;;;5013008;28;20433;-83
2021/01/21 02:17:31;;;;;;;3.50;2.30;;;;;;;;;;4995076;28;20380;-83
2021/01/21 02:20:17;;;;;;;2.88;2.47;;;;;;;;;;4995225;28;20730;-83
2021/01/21 02:22:49;;;;;;;3.63;2.30;;;;;;;;;;5009370;28;20395;-83
2021/01/21 02:25:16;;;;;;;2.80;2.40;;;;;;;;;;5012724;28;20399;-83
2021/01/21 02:28:00;;;;;;;4.10;2.47;;;;;;;;;;4995017;28;20376;-83
2021/01/21 02:30:49;;;;;;;3.75;2.10;;;;;;;;;;5012142;28;20375;-83
2021/01/21 02:33:34;;;;;;;2.88;2.17;;;;;;;;;;4959187;28;20422;-83
2021/01/21 02:36:03;;;;;;;2.58;2.00;;;;;;;;;;4994958;28;20394;-83
2021/01/21 02:38:31;;;;;;;3.22;2.13;;;;;;;;;;5012658;28;20367;-82
2021/01/21 02:40:58;;;;;;;3.53;2.10;;;;;;;;;;5012459;28;20417;-83
2021/01/21 02:43:23;;;;;;;2.60;1.92;;;;;;;;;;5012419;28;20390;-83
2021/01/21 02:45:49;;;;;;;2.40;1.92;;;;;;;;;;4994606;28;20433;-83
2021/01/21 02:48:15;;;;;;;3.03;2.17;;;;;;;;;;5012470;28;20351;-83
2021/01/21 02:50:42;;;;;;;2.63;2.20;;;;;;;;;;4996900;28;20454;-83
2021/01/21 02:53:08;;;;;;;2.60;2.30;;;;;;;;;;4998609;28;20378;-83
2021/01/21 02:55:39;;;;;;;2.73;2.20;;;;;;;;;;4998830;28;20367;-83
2021/01/21 02:58:20;;;;;;;2.83;2.20;;;;;;;;;;4998495;28;20788;-83
2021/01/21 03:00:47;;;;;;;2.92;2.30;;;;;;;;;;4998563;28;20375;-83
2021/01/21 03:03:18;;;;;;;2.63;2.10;;;;;;;;;;4998267;28;20401;-83
2021/01/21 03:05:48;;;;;;;3.75;2.17;;;;;;;;;;4998235;28;20734;-83
2021/01/21 03:08:14;;;;;;;3.08;1.90;;;;;;;;;;5015766;28;20358;-83
2021/01/21 03:10:40;;;;;;;2.37;2.07;;;;;;;;;;5015904;28;20363;-82
2021/01/21 03:13:06;;;;;;;3.60;2.05;;;;;;;;;;4998225;28;20782;-83
2021/01/21 03:15:32;;;;;;;2.58;2.20;;;;;;;;;;5015963;28;20462;-83
2021/01/21 03:17:58;;;;;;;2.30;1.90;;;;;;;;;;4998203;28;20379;-83
2021/01/21 03:20:24;;;;;;;3.55;2.25;;;;;;;;;;5015543;28;20359;-82
2021/01/21 03:22:50;;;;;;;2.75;1.85;;;;;;;;;;4998613;28;20893;-85
2021/01/21 03:25:16;;;;;;;2.58;2.15;;;;;;;;;;5015663;28;20375;-84
2021/01/21 03:27:42;;;;;;;2.38;1.85;;;;;;;;;;4998066;28;20373;-84
2021/01/21 03:30:08;;;;;;;3.13;2.40;;;;;;;;;;5015242;28;20375;-83
2021/01/21 03:32:35;;;;;;;3.28;1.88;;;;;;;;;;4997691;28;20380;-83
2021/01/21 03:35:01;;;;;;;3.33;2.30;;;;;;;;;;4996711;28;20373;-83
2021/01/21 03:37:27;;;;;;;3.13;2.05;;;;;;;;;;4996744;28;20379;-83
2021/01/21 03:39:53;;;;;;;3.60;2.00;;;;;;;;;;4997365;28;20803;-83
2021/01/21 03:42:19;;;;;;;3.17;2.17;;;;;;;;;;4997471;28;20442;-83
2021/01/21 03:44:45;;;;;;;2.47;1.83;;;;;;;;;;4997491;28;20850;-83
2021/01/21 03:47:11;;;;;;;2.55;1.60;;;;;;;;;;4996836;28;20363;-83
2021/01/21 03:49:37;;;;;;;2.63;1.80;;;;;;;;;;5014180;28;20366;-84
2021/01/21 03:52:03;;;;;;;2.28;1.83;;;;;;;;;;4996943;28;20371;-83
2021/01/21 03:54:29;;;;;;;2.22;1.83;;;;;;;;;;4997450;28;20446;-82
2021/01/21 03:56:55;;;;;;;2.40;1.70;;;;;;;;;;4997583;28;20359;-83
2021/01/21 03:59:21;;;;;;;4.77;2.00;;;;;;;;;;4997195;28;20536;-83
2021/01/21 04:01:47;;;;;;;2.85;2.10;;;;;;;;;;5014605;28;20374;-82
2021/01/21 04:04:13;;;;;;;1.95;1.75;;;;;;;;;;5014521;28;20474;-82
2021/01/21 04:06:39;;;;;;;2.35;1.92;;;;;;;;;;4996912;28;20797;-83
2021/01/21 04:09:06;;;;;;;2.08;1.80;;;;;;;;;;4996848;28;20370;-83
2021/01/21 04:11:32;;;;;;;3.00;1.83;;;;;;;;;;5014831;28;20409;-83
2021/01/21 04:13:58;;;;;;;2.17;1.83;;;;;;;;;;4996961;28;20378;-83
2021/01/21 04:16:24;;;;;;;2.28;1.83;;;;;;;;;;4996768;28;20378;-83
2021/01/21 04:18:50;;;;;;;2.88;1.73;;;;;;;;;;4997318;28;20372;-83
2021/01/21 04:21:16;;;;;;;2.92;1.83;;;;;;;;;;4996965;28;20919;-83
2021/01/21 04:23:42;;;;;;;2.25;1.85;;;;;;;;;;4996797;28;20407;-83
2021/01/21 04:26:08;;;;;;;3.53;1.77;;;;;;;;;;4996849;28;20505;-83
2021/01/21 04:28:34;;;;;;;2.63;1.90;;;;;;;;;;4996789;28;20458;-83
2021/01/21 04:31:00;;;;;;;3.50;2.10;;;;;;;;;;4996589;28;20382;-83
2021/01/21 04:33:26;;;;;;;2.47;2.00;;;;;;;;;;4996700;28;20359;-84
2021/01/21 04:35:52;;;;;;;2.75;1.90;;;;;;;;;;5014192;28;20725;-83
2021/01/21 04:38:18;;;;;;;2.55;1.73;;;;;;;;;;5014216;28;20833;-83
2021/01/21 04:40:45;;;;;;;2.85;2.10;;;;;;;;;;5014001;28;20402;-84
2021/01/21 04:43:11;;;;;;;3.45;2.10;;;;;;;;;;4996375;28;20406;-83
2021/01/21 04:45:37;;;;;;;2.00;1.80;;;;;;;;;;5013892;28;20375;-83
2021/01/21 04:48:05;;;;;;;3.15;2.00;;;;;;;;;;4996480;28;20372;-83
2021/01/21 04:50:32;;;;;;;2.73;1.80;;;;;;;;;;5013821;28;20367;-84
2021/01/21 04:53:00;;;;;;;3.17;1.65;;;;;;;;;;4996275;28;20371;-84
2021/01/21 04:55:28;;;;;;;3.22;2.00;;;;;;;;;;4996124;28;20878;-85
2021/01/21 04:58:14;;;;;;;3.00;1.87;;;;;;;;;;4996396;28;20531;-84
2021/01/21 05:00:41;;;;;;;2.67;1.90;;;;;;;;;;4982039;28;20377;-83
2021/01/21 05:03:08;;;;;;;2.50;1.77;;;;;;;;;;4995925;28;20387;-85
2021/01/21 05:05:35;;;;;;;2.90;1.92;;;;;;;;;;5013464;28;20394;-85
2021/01/21 05:08:02;;;;;;;2.28;1.73;;;;;;;;;;4996075;28;20474;-84
2021/01/21 05:10:29;;;;;;;2.03;1.70;;;;;;;;;;4995485;28;20401;-83
2021/01/21 05:12:55;;;;;;;2.22;1.90;;;;;;;;;;5012889;28;20367;-83
2021/01/21 05:15:21;;;;;;;2.63;1.83;;;;;;;;;;5013096;28;20363;-83
2021/01/21 05:17:47;;;;;;;2.85;1.70;;;;;;;;;;4995820;28;20454;-83
2021/01/21 05:20:13;;;;;;;2.00;1.80;;;;;;;;;;4995491;28;20421;-83
2021/01/21 05:22:39;;;;;;;2.25;1.70;;;;;;;;;;5013196;28;20395;-83
2021/01/21 05:25:06;;;;;;;2.17;1.98;;;;;;;;;;5013751;28;20374;-83
2021/01/21 05:27:32;;;;;;;3.30;2.00;;;;;;;;;;5013328;28;20374;-84
2021/01/21 05:30:00;;;;;;;3.38;2.08;;;;;;;;;;5013217;28;20434;-83
2021/01/21 05:32:26;;;;;;;2.58;1.80;;;;;;;;;;4995635;28;20359;-84
2021/01/21 05:34:52;;;;;;;2.50;2.03;;;;;;;;;;4995664;28;20466;-83
2021/01/21 05:37:18;;;;;;;1.92;1.60;;;;;;;;;;4995570;28;20931;-84
2021/01/21 05:39:45;;;;;;;2.30;1.83;;;;;;;;;;4995389;28;20399;-83
2021/01/21 05:42:12;;;;;;;3.35;2.00;;;;;;;;;;4995363;28;20375;-82
2021/01/21 05:44:38;;;;;;;3.87;1.80;;;;;;;;;;4998724;28;20382;-89
2021/01/21 05:47:06;;;;;;;2.95;1.95;;;;;;;;;;5012640;28;20397;-85
2021/01/21 05:49:32;;;;;;;2.63;1.90;;;;;;;;;;5027367;28;20374;-86
2021/01/21 05:51:58;;;;;;;3.30;1.95;;;;;;;;;;5044761;28;20397;-86
2021/01/21 05:54:25;;;;;;;3.22;1.98;;;;;;;;;;5018805;28;20380;-85
2021/01/21 05:56:51;;;;;;;2.30;1.80;;;;;;;;;;5034363;28;20361;-86
2021/01/21 05:59:19;;;;;;;2.80;1.80;;;;;;;;;;5033255;28;20907;-85
2021/01/21 06:01:45;;;;;;;2.88;1.80;;;;;;;;;;5032684;28;20862;-86
2021/01/21 06:04:11;;;;;;;4.63;1.98;;;;;;;;;;5032192;28;20396;-86
2021/01/21 06:06:39;;;;;;;2.70;1.80;;;;;;;;;;5032232;28;20475;-85
2021/01/21 06:09:16;;;;;;;3.47;1.80;;;;;;;;;;5032461;28;20454;-86
2021/01/21 06:11:43;;;;;;;1.90;1.70;;;;;;;;;;5031506;28;20713;-86
2021/01/21 06:14:12;;;;;;;5.50;1.92;;;;;;;;;;5014591;28;20370;-86
2021/01/21 06:16:41;;;;;;;2.45;1.80;;;;;;;;;;5037083;28;20356;-86
2021/01/21 06:19:07;;;;;;;3.25;2.10;;;;;;;;;;5052141;28;20356;-86
2021/01/21 06:21:35;;;;;;;2.60;1.60;;;;;;;;;;5053001;28;20931;-85
2021/01/21 06:24:02;;;;;;;2.60;1.50;;;;;;;;;;5048718;28;20439;-83
2021/01/21 06:26:37;;;;;;;1.98;1.80;;;;;;;;;;5018426;28;20736;-84
2021/01/21 06:29:03;;;;;;;3.20;1.80;;;;;;;;;;5036542;28;20412;-83
2021/01/21 06:31:32;;;;;;;3.20;1.80;;;;;;;;;;5035357;28;20455;-85
2021/01/21 06:33:59;;;;;;;3.42;1.77;;;;;;;;;;5017531;28;20423;-85
2021/01/21 06:36:28;;;;;;;2.97;2.05;;;;;;;;;;5034928;28;20462;-85
2021/01/21 06:38:55;;;;;;;2.57;1.80;;;;;;;;;;5034994;28;20932;-85
2021/01/21 06:41:23;;;;;;;4.28;1.70;;;;;;;;;;5034884;28;20361;-85
2021/01/21 06:43:49;;;;;;;2.30;1.67;;;;;;;;;;5034652;28;20798;-84
2021/01/21 06:46:15;;;;;;;3.75;2.00;;;;;;;;;;5016802;28;20875;-87
2021/01/21 06:48:42;;;;;;;4.18;1.90;;;;;;;;;;5017327;28;20442;-84
2021/01/21 06:51:09;;;;;;;2.78;1.90;;;;;;;;;;5034489;28;20697;-85
2021/01/21 06:53:35;;;;;;;2.53;1.77;;;;;;;;;;5016897;28;20382;-85
2021/01/21 06:56:01;;;;;;;2.15;1.80;;;;;;;;;;5034227;28;20710;-85
2021/01/21 06:58:46;;;;;;;2.35;1.70;;;;;;;;;;5016574;28;20377;-85
2021/01/21 07:01:31;;;;;;;3.08;1.70;;;;;;;;;;5016470;28;20701;-87
2021/01/21 07:04:18;;;;;;;1.70;1.50;;;;;;;;;;5034576;28;20479;-85
2021/01/21 07:06:50;;;;;;;2.95;1.75;;;;;;;;;;5029285;28;20437;-86
2021/01/21 07:09:20;;;;;;;2.53;1.83;;;;;;;;;;5015642;28;20468;-86
2021/01/21 07:11:47;;;;;;;3.75;2.05;;;;;;;;;;5033738;28;20404;-86
2021/01/21 07:14:17;;;;;;;4.65;1.98;;;;;;;;;;5033848;28;20366;-85
2021/01/21 07:16:48;;;;;;;2.22;1.70;;;;;;;;;;5016568;28;20361;-85
2021/01/21 07:19:14;;;;;;;2.10;1.60;;;;;;;;;;5034239;28;20397;-85
2021/01/21 07:21:51;;;;;;;2.83;1.70;;;;;;;;;;5034308;28;20376;-87
2021/01/21 07:24:20;;;;;;;4.03;1.80;;;;;;;;;;5032073;28;20484;-85
2021/01/21 07:26:52;;;;;;;3.13;1.70;;;;;;;;;;5014603;28;20375;-85
2021/01/21 07:29:19;;;;;;;2.25;1.77;;;;;;;;;;5014147;28;20869;-85
2021/01/21 07:31:55;;;;;;;3.55;2.00;;;;;;;;;;4996881;28;20377;-86
2021/01/21 07:34:25;;;;;;;3.33;1.73;;;;;;;;;;4996335;28;20443;-84
2021/01/21 07:37:11;;;;;;;3.00;1.67;;;;;;;;;;5021987;28;20697;-84
2021/01/21 07:39:53;;;;;;;3.38;1.88;;;;;;;;;;5014966;28;20423;-84
2021/01/21 07:42:19;;;;;;;4.10;2.05;;;;;;;;;;5015547;28;20423;-84
2021/01/21 07:44:55;;;;;;;5.57;2.07;;;;;;;;;;5015773;28;20445;-84
2021/01/21 07:47:27;;;;;;;3.45;1.90;;;;;;;;;;5015726;28;20374;-85
2021/01/21 07:50:12;;;;;;;1.90;1.50;;;;;;;;;;5032654;28;20365;-85
2021/01/21 07:52:47;;;;;;;3.45;1.88;;;;;;;;;;5035324;28;20750;-85
2021/01/21 07:55:14;;;;;;;2.97;1.90;;;;;;;;;;5015966;28;20461;-87
2021/01/21 07:57:40;;;;;;;2.38;1.75;;;;;;;;;;5016582;28;20376;-86
2021/01/21 08:00:10;;;;;;;2.15;1.85;;;;;;;;;;5016538;28;20376;-85
2021/01/21 08:02:43;;;;;;;3.53;1.92;;;;;;;;;;5033900;28;20768;-84
2021/01/21 08:05:10;;;;;;;2.58;1.90;;;;;;;;;;5033811;28;20373;-84
2021/01/21 08:07:52;;;;;;;2.63;1.65;;;;;;;;;;5014864;28;20432;-85
2021/01/21 08:10:20;;;;;;;2.40;1.88;;;;;;;;;;5014919;28;20859;-85
2021/01/21 08:12:56;;;;;;;3.05;1.80;;;;;;;;;;5032916;28;20374;-84
2021/01/21 08:15:22;;;;;;;2.08;1.70;;;;;;;;;;5014971;28;20378;-84
2021/01/21 08:17:52;;;;;;;3.55;1.80;;;;;;;;;;5033188;28;20397;-84
2021/01/21 08:20:18;;;;;;;4.97;1.83;;;;;;;;;;5033244;28;20358;-86
2021/01/21 08:22:55;;;;;;;2.40;1.77;;;;;;;;;;5032985;28;20767;-85
2021/01/21 08:25:21;;;;;;;2.53;1.73;;;;;;;;;;5014759;28;20386;-85
2021/01/21 08:27:49;;;;;;;3.78;1.75;;;;;;;;;;5032618;28;20419;-83
2021/01/21 08:30:25;;;;;;;2.45;1.60;;;;;;;;;;5015045;28;20374;-84
2021/01/21 08:32:57;;;;;;;3.00;1.80;;;;;;;;;;5015017;28;20377;-85
2021/01/21 08:35:24;;;;;;;2.85;1.50;;;;;;;;;;5032662;28;20380;-88
2021/01/21 08:37:51;;;;;;;2.88;1.70;;;;;;;;;;5014807;28;20464;-85
2021/01/21 08:40:18;;;;;;;2.38;1.75;;;;;;;;;;5001875;28;20371;-84
2021/01/21 08:42:48;;;;;;;2.73;1.60;;;;;;;;;;5013185;28;20409;-82
2021/01/21 08:45:14;;;;;;;2.65;1.75;;;;;;;;;;5005516;28;20408;-84
2021/01/21 08:47:44;;;;;;;3.10;1.60;;;;;;;;;;5032449;28;20358;-82
2021/01/21 08:50:10;;;;;;;2.55;1.88;;;;;;;;;;5015186;28;20370;-82
2021/01/21 08:52:36;;;;;;;2.72;1.98;;;;;;;;;;5015276;28;20374;-82
2021/01/21 08:55:03;;;;;;;3.93;2.20;;;;;;;;;;5010906;28;20373;-81
2021/01/21 08:57:29;;;;;;;2.30;1.63;;;;;;;;;;5032123;28;20353;-82
2021/01/21 08:59:55;;;;;;;3.30;1.50;;;;;;;;;;5031948;28;20358;-82
2021/01/21 09:02:42;;;;;;;4.93;2.10;;;;;;;;;;5000844;28;20368;-83
2021/01/21 09:05:08;;;;;;;2.65;1.80;;;;;;;;;;4995339;28;20753;-81
2021/01/21 09:07:40;;;;;;;3.50;1.70;;;;;;;;;;5031881;28;20389;-81
2021/01/21 09:10:13;;;;;;;2.83;1.60;;;;;;;;;;5031975;28;20357;-81
2021/01/21 09:12:41;;;;;;;2.40;1.58;;;;;;;;;;5014050;28;20374;-83
2021/01/21 09:15:09;;;;;;;2.20;1.50;;;;;;;;;;5014524;28;21076;-81
2021/01/21 09:17:37;;;;;;;3.20;1.60;;;;;;;;;;5032103;28;20903;-82
2021/01/21 09:20:24;;;;;;;4.47;2.08;;;;;;;;;;5013188;28;20378;-82
2021/01/21 09:22:51;;;;;;;1.87;1.50;;;;;;;;;;5014373;28;20396;-84
2021/01/21 09:25:24;;;;;;;2.30;1.80;;;;;;;;;;5027994;28;20370;-83
2021/01/21 09:27:54;;;;;;;2.08;1.73;;;;;;;;;;5032452;28;20369;-83
2021/01/21 09:30:20;;;;;;;3.55;1.73;;;;;;;;;;5014742;28;20374;-83
2021/01/21 09:32:46;;;;;;;2.23;1.47;;;;;;;;;;5015136;28;21011;-83
2021/01/21 09:35:14;;;;;;;2.47;1.40;;;;;;;;;;5014992;28;20384;-83
2021/01/21 09:37:41;;;;;;;4.07;1.40;;;;;;;;;;5025033;28;20378;-84
2021/01/21 09:40:08;;;;;;;2.58;1.35;;;;;;;;;;5021989;28;20383;-84
2021/01/21 09:42:35;;;;;;;3.13;1.58;;;;;;;;;;5014838;28;20932;-83
2021/01/21 09:45:01;;;;;;;4.82;1.70;;;;;;;;;;5009775;28;20375;-82
2021/01/21 09:47:27;;;;;;;1.83;1.50;;;;;;;;;;5011784;28;20363;-84
2021/01/21 09:49:53;;;;;;;2.83;1.50;;;;;;;;;;5010435;28;20378;-83
2021/01/21 09:52:19;;;;;;;2.40;1.52;;;;;;;;;;5010504;28;20363;-83
2021/01/21 09:54:46;;;;;;;3.67;1.50;;;;;;;;;;5014023;28;20383;-84
2021/01/21 09:57:12;;;;;;;3.58;1.50;;;;;;;;;;5006855;28;20385;-84
2021/01/21 09:59:38;;;;;;;2.30;1.50;;;;;;;;;;5026899;28;20851;-83
2021/01/21 10:02:04;;;;;;;3.25;1.55;;;;;;;;;;5004544;28;20373;-83
2021/01/21 10:04:30;;;;;;;2.55;1.45;;;;;;;;;;4994139;28;20395;-84
2021/01/21 10:06:56;;;;;;;2.78;1.40;;;;;;;;;;4993793;28;20459;-84
2021/01/21 10:09:23;;;;;;;2.13;1.63;;;;;;;;;;5023585;28;20388;-83
2021/01/21 10:11:49;;;;;;;2.83;1.40;;;;;;;;;;5019517;28;20379;-86
2021/01/21 10:14:15;;;;;;;2.58;1.35;;;;;;;;;;5032863;28;20376;-84
2021/01/21 10:16:41;;;;;;;2.50;1.40;;;;;;;;;;5029096;28;20354;-83
2021/01/21 10:19:09;;;;;;;3.47;1.50;;;;;;;;;;5021895;28;20370;-82
2021/01/21 10:21:35;;;;;;;2.38;1.30;;;;;;;;;;5030704;28;20867;-83
2021/01/21 10:24:01;;;;;;;2.78;1.45;;;;;;;;;;5013094;28;20433;-83
2021/01/21 10:26:27;;;;;;;3.78;1.30;;;;;;;;;;5013011;28;20377;-83
2021/01/21 10:28:54;;;;;;;2.70;1.30;;;;;;;;;;5030755;28;20362;-84
2021/01/21 10:31:20;;;;;;;3.72;1.67;;;;;;;;;;5012660;28;20432;-84
2021/01/21 10:33:46;;;;;;;2.85;1.27;;;;;;;;;;5029439;28;20374;-82
2021/01/21 10:36:12;;;;;;;2.33;1.65;;;;;;;;;;5012563;28;20392;-83
2021/01/21 10:38:39;;;;;;;2.65;1.55;;;;;;;;;;5014100;28;20377;-82
2021/01/21 10:41:05;;;;;;;2.67;1.48;;;;;;;;;;5035175;28;20361;-81
2021/01/21 10:43:31;;;;;;;1.80;1.40;;;;;;;;;;5013970;28;20471;-82
2021/01/21 10:45:58;;;;;;;2.78;1.55;;;;;;;;;;5012570;28;20468;-81
2021/01/21 10:48:24;;;;;;;2.95;1.40;;;;;;;;;;4994347;28;20406;-82
2021/01/21 10:50:50;;;;;;;3.50;1.50;;;;;;;;;;5024117;28;20366;-82
2021/01/21 10:53:16;;;;;;;4.47;1.60;;;;;;;;;;5014407;28;20519;-82
2021/01/21 10:55:42;;;;;;;3.20;1.37;;;;;;;;;;5014239;28;20506;-82
2021/01/21 10:58:08;;;;;;;3.10;1.40;;;;;;;;;;5030854;28;20424;-81
2021/01/21 11:00:34;;;;;;;2.10;1.40;;;;;;;;;;5013639;28;20369;-82
2021/01/21 11:03:00;;;;;;;2.33;1.38;;;;;;;;;;5031844;28;20481;-82
2021/01/21 11:05:26;;;;;;;2.47;1.50;;;;;;;;;;5014031;28;20795;-83
2021/01/21 11:07:52;;;;;;;3.45;1.40;;;;;;;;;;5031844;28;20365;-82
2021/01/21 11:10:26;;;;;;;3.97;1.40;;;;;;;;;;5031158;28;20453;-82
2021/01/21 11:12:52;;;;;;;6.00;1.52;;;;;;;;;;5029144;28;20853;-83
2021/01/21 11:15:27;;;;;;;3.60;1.50;;;;;;;;;;4997959;28;20367;-83
2021/01/21 11:17:53;;;;;;;3.55;1.27;;;;;;;;;;4998859;28;20429;-82
2021/01/21 11:20:19;;;;;;;3.45;1.55;;;;;;;;;;5016960;28;20868;-82
2021/01/21 11:22:45;;;;;;;1.52;1.20;;;;;;;;;;5034742;28;20934;-81
2021/01/21 11:25:12;;;;;;;2.30;1.50;;;;;;;;;;5018052;28;20369;-82
2021/01/21 11:27:40;;;;;;;1.88;1.30;;;;;;;;;;5018213;28;20374;-82
2021/01/21 11:30:08;;;;;;;3.53;1.50;;;;;;;;;;5031352;28;20359;-82
2021/01/21 11:32:34;;;;;;;2.22;1.30;;;;;;;;;;4997697;28;20371;-81
2021/01/21 11:35:01;;;;;;;3.60;1.42;;;;;;;;;;5016043;28;20367;-85
2021/01/21 11:37:27;;;;;;;2.47;1.48;;;;;;;;;;5015891;28;20402;-87
2021/01/21 11:39:54;;;;;;;1.80;1.20;;;;;;;;;;4997373;28;20386;-84
2021/01/21 11:42:20;;;;;;;3.13;1.30;;;;;;;;;;4997536;28;20382;-84
2021/01/21 11:44:46;;;;;;;1.95;1.38;;;;;;;;;;5014791;28;20410;-81
2021/01/21 11:47:14;;;;;;;1.90;1.40;;;;;;;;;;4996835;28;20460;-82
2021/01/21 11:49:41;;;;;;;4.57;1.75;;;;;;;;;;5014876;28;20367;-81
2021/01/21 11:52:07;;;;;;;2.83;1.50;;;;;;;;;;5030550;28;20448;-81
2021/01/21 11:54:33;;;;;;;4.47;1.70;;;;;;;;;;5016798;28;20515;-80
2021/01/21 11:56:59;;;;;;;3.37;1.57;;;;;;;;;;5016747;28;20440;-81
2021/01/21 11:59:26;;;;;;;2.50;1.47;;;;;;;;;;5016653;28;20357;-82
2021/01/21 12:02:02;;;;;;;2.80;1.30;;;;;;;;;;5016680;28;20381;-82
2021/01/21 12:04:28;;;;;;;3.42;1.50;;;;;;;;;;5033205;28;20444;-85
2021/01/21 12:06:54;;;;;;;1.75;1.30;;;;;;;;;;5034123;28;20377;-83
2021/01/21 12:09:21;;;;;;;3.00;1.27;;;;;;;;;;5016748;28;20362;-82
2021/01/21 12:11:46;;;;;;;1.60;1.20;;;;;;;;;;5034923;28;20365;-82
2021/01/21 12:14:13;;;;;;;2.35;1.40;;;;;;;;;;5034514;28;20447;-82
2021/01/21 12:16:39;;;;;;;2.03;1.40;;;;;;;;;;5034340;28;20372;-82
2021/01/21 12:19:07;;;;;;;2.63;1.45;;;;;;;;;;5034649;28;20389;-82
2021/01/21 12:21:39;;;;;;;1.48;1.13;;;;;;;;;;5033421;28;20350;-83
2021/01/21 12:24:11;;;;;;;2.55;1.33;;;;;;;;;;5033063;28;20392;-83
2021/01/21 12:26:48;;;;;;;3.55;1.60;;;;;;;;;;5028423;28;20403;-81
2021/01/21 12:29:18;;;;;;;2.67;1.40;;;;;;;;;;5033783;28;20365;-82
2021/01/21 12:31:44;;;;;;;2.42;1.50;;;;;;;;;;5016016;28;20804;-83
2021/01/21 12:34:10;;;;;;;2.72;1.60;;;;;;;;;;5032244;28;20366;-82
2021/01/21 12:36:36;;;;;;;4.05;1.80;;;;;;;;;;5015300;28;20848;-81
2021/01/21 12:39:02;;;;;;;1.52;1.35;;;;;;;;;;5016603;28;20373;-82
2021/01/21 12:41:34;;;;;;;1.98;1.60;;;;;;;;;;5035218;28;20882;-81
2021/01/21 12:44:00;;;;;;;4.00;1.83;;;;;;;;;;5033753;28;20472;-82
2021/01/21 12:46:28;;;;;;;2.50;1.42;;;;;;;;;;5034488;28;20776;-82
2021/01/21 12:48:55;;;;;;;1.20;0.98;;;;;;;;;;5034789;28;20712;-81
2021/01/21 12:51:21;;;;;;;1.77;1.00;;;;;;;;;;5016078;28;20898;-81
2021/01/21 12:53:47;;;;;;;2.97;1.17;;;;;;;;;;5034029;28;20417;-81
2021/01/21 12:56:13;;;;;;;1.97;0.80;;;;;;;;;;5016434;28;20409;-82
2021/01/21 12:58:39;;;;;;;1.80;0.60;;;;;;;;;;5033822;28;20365;-81
2021/01/21 13:01:05;;;;;;;2.10;0.70;;;;;;;;;;5016060;28;20373;-80
2021/01/21 13:03:31;;;;;;;2.95;1.40;;;;;;;;;;5015167;28;20407;-78
2021/01/21 13:05:57;;;;;;;2.92;1.40;;;;;;;;;;5014856;28;20468;-78
2021/01/21 13:08:25;;;;;;;2.20;1.08;;;;;;;;;;5032887;28;20361;-80
2021/01/21 13:10:51;;;;;;;1.30;0.60;;;;;;;;;;5014963;28;20380;-80
2021/01/21 13:13:18;;;;;;;1.80;0.50;;;;;;;;;;5011645;28;20385;-83
2021/01/21 13:15:47;;;;;;;0.85;0.60;;;;;;;;;;5032646;28;20396;-84
2021/01/21 13:18:16;;;;;;;0.73;0.63;;;;;;;;;;5014813;28;20373;-81
2021/01/21 13:20:44;;;;;;;1.45;0.70;;;;;;;;;;5013963;28;20417;-83
2021/01/21 13:23:10;;;;;;;0.70;0.50;;;;;;;;;;4995604;28;20394;-79
2021/01/21 13:25:43;;;;;;;1.40;0.60;;;;;;;;;;5013314;28;20486;-82
2021/01/21 13:28:09;;;;;;;1.00;0.60;;;;;;;;;;4996682;28;20475;-81
2021/01/21 13:30:35;;;;;;;1.45;0.60;;;;;;;;;;4997634;28;20379;-80
2021/01/21 13:33:02;;;;;;;0.90;0.60;;;;;;;;;;5005965;28;20373;-79
2021/01/21 13:35:33;;;;;;;2.03;0.82;;;;;;;;;;5010826;28;20511;-81
2021/01/21 13:38:00;;;;;;;1.02;0.60;;;;;;;;;;5002904;28;20384;-80
2021/01/21 13:40:26;;;;;;;1.02;0.70;;;;;;;;;;5024103;28;20370;-81
2021/01/21 13:42:57;;;;;;;0.90;0.70;;;;;;;;;;5014588;28;20401;-79
2021/01/21 13:45:24;;;;;;;2.50;0.75;;;;;;;;;;5014978;28;20381;-81
2021/01/21 13:47:50;;;;;;;0.85;0.60;;;;;;;;;;5028015;28;20372;-79
2021/01/21 13:50:23;;;;;;;2.05;0.60;;;;;;;;;;5014646;28;20369;-82
2021/01/21 13:52:49;;;;;;;1.05;0.52;;;;;;;;;;5013962;28;20389;-81
2021/01/21 14:00:30;;;;;;;1.40;0.52;;;;;;;;;;5044014;28;20418;-81
2021/01/21 14:03:12;;;;;;;0.77;0.52;;;;;;;;;;5027805;28;20391;-83
2021/01/21 14:05:41;;;;;;;0.70;0.70;;;;;;;;;;5034330;28;20374;-82
2021/01/21 14:08:08;;;;;;;1.50;0.70;;;;;;;;;;5349943;22;20422;-85
2021/01/21 14:13:04;;;;;;;0.65;0.63;;;;;;;;;;5036608;23;20505;-84
2021/01/21 14:15:30;;;;;;;1.52;0.63;;;;;;;;;;5230639;22;20805;-87
2021/01/21 14:17:56;;;;;;;1.13;0.80;;;;;;;;;;5415154;22;20511;-83
2021/01/21 14:20:23;;;;;;;3.45;1.00;;;;;;;;;;5005930;28;20355;-80
2021/01/21 14:22:49;;;;;;;1.45;0.70;;;;;;;;;;5011452;28;20374;-82
2021/01/21 14:25:15;;;;;;;1.95;0.98;;;;;;;;;;4994815;28;20877;-80
2021/01/21 14:27:41;;;;;;;1.13;0.82;;;;;;;;;;5012469;28;20848;-79
2021/01/21 14:30:07;;;;;;;0.70;0.70;;;;;;;;;;4994685;28;21242;-76
2021/01/21 14:32:36;;;;;;;1.10;0.60;;;;;;;;;;5011893;28;20367;-82
2021/01/21 14:35:02;;;;;;;1.98;1.00;;;;;;;;;;4990300;28;20737;-78
2021/01/21 14:37:35;;;;;;;2.55;1.15;;;;;;;;;;4994165;28;20375;-82
2021/01/21 14:40:18;;;;;;;1.73;1.20;;;;;;;;;;4993575;28;20380;-80
2021/01/21 14:42:44;;;;;;;1.00;0.90;;;;;;;;;;5007509;28;20374;-85
2021/01/21 14:45:18;;;;;;;1.48;1.00;;;;;;;;;;5012077;28;20370;-83
2021/01/21 14:47:45;;;;;;;0.80;0.73;;;;;;;;;;5016312;28;20714;-81
2021/01/21 14:50:11;;;;;;;2.60;0.90;;;;;;;;;;5013794;28;20473;-82
2021/01/21 14:52:37;;;;;;;0.98;0.80;;;;;;;;;;4987189;28;20384;-80
2021/01/21 14:55:04;;;;;;;1.00;0.80;;;;;;;;;;4996954;28;20365;-81